createdAt,value
2022-09-09T00:02:03.208Z,15.75
2022-09-09T00:04:34.326Z,15.75
2022-09-09T00:07:23.919Z,15.73
2022-09-09T00:10:27.045Z,15.74
2022-09-09T00:12:58.141Z,15.74
2022-09-09T00:15:53.315Z,15.71
2022-09-09T00:18:45.531Z,15.70
2022-09-09T00:21:17.931Z,15.69
2022-09-09T00:23:48.892Z,15.68
2022-09-09T00:26:23.703Z,15.67
2022-09-09T00:28:57.384Z,15.66
2022-09-09T00:31:27.937Z,15.66
2022-09-09T00:34:03.169Z,15.68
2022-09-09T00:36:32.752Z,15.67
2022-09-09T00:39:02.492Z,15.69
2022-09-09T00:41:45.068Z,15.68
2022-09-09T00:44:35.821Z,15.67
2022-09-09T00:47:28.178Z,15.66
2022-09-09T00:50:17.512Z,15.64
2022-09-09T00:52:58.046Z,15.60
2022-09-09T00:55:38.350Z,15.57
2022-09-09T00:58:08.605Z,15.54
2022-09-09T01:00:53.513Z,15.49
2022-09-09T01:03:38.982Z,15.46
2022-09-09T01:06:28.687Z,15.43
2022-09-09T01:09:30.214Z,15.39
2022-09-09T01:12:07.321Z,15.30
2022-09-09T01:14:41.182Z,15.24
2022-09-09T01:17:23.721Z,15.21
2022-09-09T01:20:20.592Z,15.16
2022-09-09T01:23:08.291Z,15.13
2022-09-09T01:25:53.245Z,15.11
2022-09-09T01:28:26.094Z,15.07
2022-09-09T01:30:56.186Z,15.00
2022-09-09T01:33:25.267Z,14.98
2022-09-09T01:36:05.215Z,14.95
2022-09-09T01:38:35.588Z,14.90
2022-09-09T01:41:03.607Z,14.86
2022-09-09T01:43:33.217Z,14.83
2022-09-09T01:46:03.046Z,14.78
2022-09-09T01:48:32.048Z,14.74
2022-09-09T01:51:04.289Z,14.70
2022-09-09T01:53:31.854Z,14.66
2022-09-09T01:56:14.740Z,14.64
2022-09-09T01:58:51.781Z,14.61
2022-09-09T02:01:42.038Z,14.60
2022-09-09T02:04:22.278Z,14.58
2022-09-09T02:06:51.636Z,14.56
2022-09-09T02:09:23.367Z,14.56
2022-09-09T02:11:57.616Z,14.58
2022-09-09T02:14:29.876Z,14.60
2022-09-09T02:17:09.713Z,14.61
2022-09-09T02:19:49.262Z,14.62
2022-09-09T02:22:23.512Z,14.63
2022-09-09T02:24:52.585Z,14.62
2022-09-09T02:27:23.068Z,14.62
2022-09-09T02:29:52.241Z,14.63
2022-09-09T02:32:23.623Z,14.60
2022-09-09T02:34:57.024Z,14.54
2022-09-09T02:37:28.841Z,14.52
2022-09-09T02:39:56.736Z,14.49
2022-09-09T02:42:25.019Z,14.49
2022-09-09T02:44:53.143Z,14.46
2022-09-09T02:47:33.001Z,14.43
2022-09-09T02:50:25.202Z,14.42
2022-09-09T02:53:06.130Z,14.40
2022-09-09T02:55:46.697Z,14.40
2022-09-09T02:58:19.790Z,14.39
2022-09-09T03:00:51.217Z,14.38
2022-09-09T03:03:20.148Z,14.37
2022-09-09T03:05:48.125Z,14.38
2022-09-09T03:08:15.840Z,14.37
2022-09-09T03:10:44.099Z,14.39
2022-09-09T03:13:13.594Z,14.39
2022-09-09T03:15:42.609Z,14.42
2022-09-09T03:18:11.830Z,14.44
2022-09-09T03:20:39.148Z,14.46
2022-09-09T03:23:06.531Z,14.49
2022-09-09T03:25:34.596Z,14.51
2022-09-09T03:28:02.229Z,14.53
2022-09-09T03:30:29.693Z,14.60
2022-09-09T03:32:57.868Z,14.62
2022-09-09T03:35:27.067Z,14.66
2022-09-09T03:37:55.491Z,14.68
2022-09-09T03:40:24.041Z,14.70
2022-09-09T03:42:51.520Z,14.74
2022-09-09T03:45:18.902Z,14.77
2022-09-09T03:47:46.435Z,14.80
2022-09-09T03:50:14.125Z,14.84
2022-09-09T03:52:43.164Z,14.87
2022-09-09T03:55:15.462Z,14.90
2022-09-09T03:57:43.638Z,14.95
2022-09-09T04:00:12.301Z,14.98
2022-09-09T04:02:46.719Z,15.02
2022-09-09T04:05:16.013Z,15.05
2022-09-09T04:07:44.508Z,15.10
2022-09-09T04:10:11.790Z,15.13
2022-09-09T04:12:40.104Z,15.19
2022-09-09T04:15:08.492Z,15.26
2022-09-09T04:17:36.811Z,15.31
2022-09-09T04:20:05.405Z,15.37
2022-09-09T04:22:32.716Z,15.45
2022-09-09T04:25:00.408Z,15.53
2022-09-09T04:27:29.523Z,15.60
2022-09-09T04:29:57.760Z,15.65
2022-09-09T04:32:31.992Z,15.67
2022-09-09T04:34:59.349Z,15.69
2022-09-09T04:37:26.793Z,15.72
2022-09-09T04:39:54.669Z,15.78
2022-09-09T04:42:22.181Z,15.82
2022-09-09T04:44:49.923Z,15.86
2022-09-09T04:47:17.963Z,15.89
2022-09-09T04:49:45.413Z,15.92
2022-09-09T04:52:12.779Z,15.95
2022-09-09T04:54:41.375Z,15.95
2022-09-09T04:57:14.189Z,15.99
2022-09-09T04:59:40.581Z,15.99
2022-09-09T05:02:08.102Z,16.00
2022-09-09T05:04:36.336Z,16.02
2022-09-09T05:07:04.121Z,16.04
2022-09-09T05:09:31.840Z,16.03
2022-09-09T05:11:59.910Z,16.01
2022-09-09T05:14:30.526Z,15.93
2022-09-09T05:16:58.570Z,15.86
2022-09-09T05:19:25.865Z,15.78
2022-09-09T05:21:53.659Z,15.75
2022-09-09T05:24:25.616Z,15.75
2022-09-09T05:26:55.452Z,15.77
2022-09-09T05:29:23.548Z,15.78
2022-09-09T05:31:51.032Z,15.80
2022-09-09T05:34:21.177Z,15.79
2022-09-09T05:36:48.493Z,15.82
2022-09-09T05:39:16.645Z,15.88
2022-09-09T05:41:43.942Z,15.91
2022-09-09T05:44:11.264Z,15.92
2022-09-09T05:46:40.292Z,15.93
2022-09-09T05:49:08.739Z,15.93
2022-09-09T05:51:36.228Z,15.97
2022-09-09T05:54:05.404Z,16.00
2022-09-09T05:56:34.586Z,16.04
2022-09-09T05:59:02.208Z,16.07
2022-09-09T06:01:33.253Z,16.08
2022-09-09T06:04:01.333Z,16.07
2022-09-09T06:06:36.195Z,16.05
2022-09-09T06:09:06.850Z,16.05
2022-09-09T06:11:36.623Z,16.05
2022-09-09T06:14:04.622Z,16.06
2022-09-09T06:16:35.618Z,16.07
2022-09-09T06:19:03.764Z,16.14
2022-09-09T06:21:37.499Z,16.21
2022-09-09T06:24:05.689Z,16.29
2022-09-09T06:26:35.896Z,16.36
2022-09-09T06:29:04.356Z,16.42
2022-09-09T06:31:34.603Z,16.52
2022-09-09T06:34:07.090Z,16.61
2022-09-09T06:36:38.242Z,16.68
2022-09-09T06:39:10.886Z,16.76
2022-09-09T06:41:37.655Z,16.83
2022-09-09T06:44:07.104Z,16.90
2022-09-09T06:46:36.298Z,16.94
2022-09-09T06:49:04.004Z,16.98
2022-09-09T06:51:33.881Z,16.99
2022-09-09T06:54:04.337Z,16.98
2022-09-09T06:56:37.680Z,16.99
2022-09-09T06:59:08.940Z,16.99
2022-09-09T07:01:38.603Z,17.00
2022-09-09T07:04:09.287Z,17.01
2022-09-09T07:06:40.690Z,17.02
2022-09-09T07:09:10.159Z,17.03
2022-09-09T07:11:42.355Z,17.04
2022-09-09T07:14:12.323Z,17.05
2022-09-09T07:16:39.985Z,17.05
2022-09-09T07:19:07.264Z,17.04
2022-09-09T07:21:35.197Z,17.03
2022-09-09T07:24:02.710Z,17.01
2022-09-09T07:26:31.205Z,16.97
2022-09-09T07:28:59.613Z,16.94
2022-09-09T07:31:32.698Z,16.91
2022-09-09T07:34:01.293Z,16.86
2022-09-09T07:36:33.456Z,16.84
2022-09-09T07:39:04.317Z,16.84
2022-09-09T07:41:35.433Z,16.85
2022-09-09T07:44:08.456Z,16.85
2022-09-09T07:46:36.905Z,16.86
2022-09-09T07:49:04.498Z,16.86
2022-09-09T07:51:42.165Z,16.87
2022-09-09T07:54:15.578Z,16.89
2022-09-09T07:56:44.776Z,16.91
2022-09-09T07:59:12.795Z,16.93
2022-09-09T08:01:45.743Z,16.93
2022-09-09T08:04:17.092Z,16.99
2022-09-09T08:06:47.720Z,17.04
2022-09-09T08:09:16.401Z,17.09
2022-09-09T08:11:44.261Z,17.13
2022-09-09T08:14:12.400Z,17.20
2022-09-09T08:16:42.742Z,17.23
2022-09-09T08:19:10.960Z,17.28
2022-09-09T08:21:41.379Z,17.36
2022-09-09T08:24:11.243Z,17.42
2022-09-09T08:26:43.868Z,17.49
2022-09-09T08:29:14.191Z,17.57
2022-09-09T08:31:47.514Z,17.62
2022-09-09T08:34:15.819Z,17.67
2022-09-09T08:36:45.860Z,17.74
2022-09-09T08:39:15.538Z,17.80
2022-09-09T08:42:05.905Z,17.87
2022-09-09T08:44:56.707Z,17.91
2022-09-09T08:47:40.765Z,17.97
2022-09-09T08:50:25.943Z,17.99
2022-09-09T08:53:00.020Z,18.01
2022-09-09T08:55:51.707Z,18.04
2022-09-09T08:58:25.310Z,18.09
2022-09-09T09:01:13.005Z,18.16
2022-09-09T09:04:07.326Z,18.21
2022-09-09T09:06:57.862Z,18.27
2022-09-09T09:09:38.358Z,18.33
2022-09-09T09:12:10.052Z,18.42
2022-09-09T09:14:38.557Z,18.50
2022-09-09T09:17:13.584Z,18.59
2022-09-09T09:19:42.161Z,18.70
2022-09-09T09:22:34.129Z,18.81
2022-09-09T09:25:23.717Z,18.91
2022-09-09T09:27:57.677Z,19.01
2022-09-09T09:30:30.585Z,19.14
2022-09-09T09:33:03.719Z,19.23
2022-09-09T09:35:31.404Z,19.30
2022-09-09T09:40:30.921Z,19.54
2022-09-09T09:43:00.966Z,19.61
2022-09-09T09:45:34.516Z,19.65
2022-09-09T09:48:07.508Z,19.72
2022-09-09T09:50:35.354Z,19.78
2022-09-09T09:53:07.587Z,19.83
2022-09-09T09:55:37.359Z,19.89
2022-09-09T09:58:06.799Z,19.92
2022-09-09T10:00:37.619Z,20.02
2022-09-09T10:03:22.833Z,20.11
2022-09-09T10:05:50.400Z,20.19
2022-09-09T10:08:19.494Z,20.28
2022-09-09T10:11:17.102Z,20.27
2022-09-09T10:14:03.311Z,20.35
2022-09-09T10:16:55.069Z,20.33
2022-09-09T10:19:28.861Z,20.29
2022-09-09T10:22:20.952Z,20.24
2022-09-09T10:25:06.986Z,20.21
2022-09-09T10:28:06.344Z,20.16
2022-09-09T10:30:49.891Z,20.08
2022-09-09T10:33:33.282Z,19.99
2022-09-09T10:36:21.985Z,19.94
2022-09-09T10:39:11.568Z,19.88
2022-09-09T10:42:10.340Z,19.81
2022-09-09T10:44:50.233Z,19.73
2022-09-09T10:47:39.252Z,19.64
2022-09-09T10:50:59.858Z,19.60
2022-09-09T10:53:34.053Z,19.55
2022-09-09T10:56:11.577Z,19.54
2022-09-09T10:58:43.463Z,19.52
2022-09-09T11:01:20.645Z,19.47
2022-09-09T11:03:52.033Z,19.45
2022-09-09T11:06:22.246Z,19.48
2022-09-09T11:08:52.675Z,19.46
2022-09-09T11:11:38.773Z,19.44
2022-09-09T11:14:28.515Z,19.44
2022-09-09T11:17:01.514Z,19.47
2022-09-09T11:19:34.845Z,19.53
2022-09-09T11:22:22.587Z,19.58
2022-09-09T11:25:00.887Z,19.64
2022-09-09T11:27:47.522Z,19.66
2022-09-09T11:30:51.347Z,19.67
2022-09-09T11:33:04.448Z,19.65
2022-09-09T11:35:42.076Z,19.65
2022-09-09T11:38:30.008Z,19.66
2022-09-09T11:41:03.207Z,19.69
2022-09-09T11:43:49.698Z,19.68
2022-09-09T11:46:24.221Z,19.65
2022-09-09T11:49:06.782Z,19.62
2022-09-09T11:51:37.775Z,19.66
2022-09-09T11:54:36.197Z,19.66
2022-09-09T11:57:05.384Z,19.71
2022-09-09T11:59:33.652Z,19.75
2022-09-09T12:02:04.403Z,19.81
2022-09-09T12:04:38.441Z,19.86
2022-09-09T12:07:12.533Z,19.88
2022-09-09T12:09:49.898Z,19.93
2022-09-09T12:12:24.610Z,19.95
2022-09-09T12:15:04.764Z,19.95
2022-09-09T12:17:47.777Z,19.96
2022-09-09T12:20:37.470Z,20.01
2022-09-09T12:23:36.577Z,20.06
2022-09-09T12:26:10.674Z,20.14
2022-09-09T12:28:54.496Z,20.20
2022-09-09T12:31:46.938Z,20.25
2022-09-09T12:34:26.371Z,20.25
2022-09-09T12:37:00.433Z,20.31
2022-09-09T12:39:36.491Z,20.36
2022-09-09T12:42:09.120Z,20.42
2022-09-09T12:44:40.525Z,20.49
2022-09-09T12:47:11.372Z,20.57
2022-09-09T12:49:46.837Z,20.64
2022-09-09T12:52:20.428Z,20.68
2022-09-09T12:54:48.824Z,20.73
2022-09-09T12:57:18.912Z,20.80
2022-09-09T12:59:49.748Z,20.84
2022-09-09T13:02:22.648Z,20.88
2022-09-09T13:04:51.971Z,20.83
2022-09-09T13:07:22.501Z,20.82
2022-09-09T13:09:50.537Z,20.78
2022-09-09T13:12:20.256Z,20.77
2022-09-09T13:14:54.436Z,20.75
2022-09-09T13:17:24.824Z,20.76
2022-09-09T13:20:08.532Z,20.77
2022-09-09T13:22:41.144Z,20.80
2022-09-09T13:25:15.234Z,20.81
2022-09-09T13:27:44.745Z,20.81
2022-09-09T13:30:23.330Z,20.75
2022-09-09T13:33:14.943Z,20.73
2022-09-09T13:35:54.873Z,20.72
2022-09-09T13:38:27.085Z,20.72
2022-09-09T13:41:03.055Z,20.68
2022-09-09T13:43:36.610Z,20.69
2022-09-09T13:46:07.915Z,20.72
2022-09-09T13:48:37.915Z,20.71
2022-09-09T13:51:06.349Z,20.72
2022-09-09T13:53:33.803Z,20.71
2022-09-09T13:56:01.814Z,20.71
2022-09-09T13:58:29.552Z,20.77
2022-09-09T14:00:57.818Z,20.81
2022-09-09T14:03:25.423Z,20.80
2022-09-09T14:05:53.321Z,20.78
2022-09-09T14:08:25.738Z,20.76
2022-09-09T14:10:53.832Z,20.76
2022-09-09T14:13:22.395Z,20.76
2022-09-09T14:15:50.285Z,20.76
2022-09-09T14:18:17.699Z,20.74
2022-09-09T14:20:45.535Z,20.74
2022-09-09T14:23:13.214Z,20.75
2022-09-09T14:25:44.475Z,20.73
2022-09-09T14:28:13.246Z,20.68
2022-09-09T14:30:41.966Z,20.68
2022-09-09T14:33:11.434Z,20.69
2022-09-09T14:35:40.069Z,20.68
2022-09-09T14:38:08.394Z,20.72
2022-09-09T14:40:37.071Z,20.80
2022-09-09T14:43:06.368Z,20.87
2022-09-09T14:45:33.969Z,20.97
2022-09-09T14:48:01.493Z,21.02
2022-09-09T14:50:29.099Z,21.07
2022-09-09T14:52:56.364Z,21.14
2022-09-09T14:55:29.874Z,21.24
2022-09-09T14:57:57.587Z,21.26
2022-09-09T15:02:54.179Z,21.36
2022-09-09T15:05:21.905Z,21.35
2022-09-09T15:07:49.229Z,21.34
2022-09-09T15:10:17.654Z,21.28
2022-09-09T15:12:45.285Z,21.25
2022-09-09T15:15:13.719Z,21.23
2022-09-09T15:17:41.421Z,21.25
2022-09-09T15:20:10.008Z,21.23
2022-09-09T15:22:38.609Z,21.16
2022-09-09T15:25:06.318Z,21.14
2022-09-09T15:27:34.651Z,21.11
2022-09-09T15:30:01.965Z,21.13
2022-09-09T15:32:35.069Z,21.14
2022-09-09T15:35:05.547Z,21.13
2022-09-09T15:37:33.177Z,21.18
2022-09-09T15:40:01.068Z,21.24
2022-09-09T15:42:30.718Z,21.26
2022-09-09T15:44:58.471Z,21.30
2022-09-09T15:47:25.928Z,21.32
2022-09-09T15:49:53.561Z,21.33
2022-09-09T15:52:20.986Z,21.31
2022-09-09T15:54:48.322Z,21.29
2022-09-09T15:57:16.016Z,21.24
2022-09-09T15:59:45.345Z,21.23
2022-09-09T16:02:12.893Z,21.23
2022-09-09T16:04:40.471Z,21.17
2022-09-09T16:07:08.062Z,21.11
2022-09-09T16:09:35.627Z,21.07
2022-09-09T16:12:08.282Z,21.06
2022-09-09T16:14:36.248Z,21.08
2022-09-09T16:17:05.505Z,21.04
2022-09-09T16:19:34.993Z,21.00
2022-09-09T16:22:02.828Z,21.00
2022-09-09T16:24:30.185Z,20.91
2022-09-09T16:26:57.715Z,20.85
2022-09-09T16:29:27.763Z,20.75
2022-09-09T16:31:56.993Z,20.68
2022-09-09T16:34:25.902Z,20.59
2022-09-09T16:36:53.211Z,20.49
2022-09-09T16:39:21.149Z,20.39
2022-09-09T16:41:49.219Z,20.32
2022-09-09T16:44:19.129Z,20.24
2022-09-09T16:46:49.133Z,20.17
2022-09-09T16:49:16.986Z,20.10
2022-09-09T16:51:49.663Z,20.02
2022-09-09T16:54:18.393Z,19.95
2022-09-09T16:56:47.575Z,19.86
2022-09-09T16:59:16.729Z,19.79
2022-09-09T17:01:46.351Z,19.74
2022-09-09T17:04:17.665Z,19.67
2022-09-09T17:06:49.741Z,19.57
2022-09-09T17:09:17.779Z,19.47
2022-09-09T17:11:46.030Z,19.40
2022-09-09T17:14:20.721Z,19.32
2022-09-09T17:16:48.001Z,19.26
2022-09-09T17:19:17.570Z,19.21
2022-09-09T17:22:12.613Z,19.20
2022-09-09T17:24:16.365Z,19.17
2022-09-09T17:26:45.390Z,19.15
2022-09-09T17:29:12.529Z,19.13
2022-09-09T17:31:41.311Z,19.10
2022-09-09T17:34:09.779Z,19.04
2022-09-09T17:36:38.628Z,19.02
2022-09-09T17:39:07.454Z,19.02
2022-09-09T17:41:37.806Z,19.02
2022-09-09T17:46:40.670Z,18.97
2022-09-09T17:49:13.340Z,18.94
2022-09-09T17:51:41.981Z,18.87
2022-09-09T17:54:12.508Z,18.80
2022-09-09T17:56:41.591Z,18.77
2022-09-09T17:59:12.806Z,18.75
2022-09-09T18:01:44.208Z,18.74
2022-09-09T18:04:16.293Z,18.71
2022-09-09T18:06:45.988Z,18.68
2022-09-09T18:09:19.779Z,18.63
2022-09-09T18:11:55.086Z,18.59
2022-09-09T18:14:25.813Z,18.58
2022-09-09T18:16:53.519Z,18.56
2022-09-09T18:19:24.182Z,18.54
2022-09-09T18:21:52.217Z,18.51
2022-09-09T18:24:21.016Z,18.48
2022-09-09T18:26:49.663Z,18.42
2022-09-09T18:29:20.160Z,18.38
2022-09-09T18:31:48.328Z,18.33
2022-09-09T18:34:18.265Z,18.31
2022-09-09T18:36:48.895Z,18.29
2022-09-09T18:39:18.212Z,18.24
2022-09-09T18:41:47.867Z,18.21
2022-09-09T18:44:20.078Z,18.15
2022-09-09T18:46:48.286Z,18.08
2022-09-09T18:49:16.094Z,18.01
2022-09-09T18:51:45.864Z,17.98
2022-09-09T18:54:22.069Z,17.96
2022-09-09T18:56:49.603Z,17.94
2022-09-09T18:59:20.019Z,17.91
2022-09-09T19:01:49.802Z,17.83
2022-09-09T19:04:18.529Z,17.79
2022-09-09T19:06:49.023Z,17.76
2022-09-09T19:09:18.055Z,17.73
2022-09-09T19:11:47.448Z,17.71
2022-09-09T19:14:16.893Z,17.68
2022-09-09T19:16:47.941Z,17.65
2022-09-09T19:19:19.306Z,17.62
2022-09-09T19:21:47.205Z,17.56
2022-09-09T19:24:17.879Z,17.54
2022-09-09T19:26:47.837Z,17.51
2022-09-09T19:29:18.869Z,17.50
2022-09-09T19:32:09.372Z,17.45
2022-09-09T19:34:18.465Z,17.42
2022-09-09T19:36:46.950Z,17.39
2022-09-09T19:39:14.891Z,17.33
2022-09-09T19:41:42.487Z,17.30
2022-09-09T19:44:12.673Z,17.27
2022-09-09T19:46:43.419Z,17.24
2022-09-09T19:49:11.149Z,17.22
2022-09-09T19:51:38.490Z,17.19
2022-09-09T19:54:09.096Z,17.13
2022-09-09T19:56:38.139Z,17.08
2022-09-09T19:59:06.766Z,17.05
2022-09-09T20:01:40.268Z,17.02
2022-09-09T20:04:06.914Z,17.02
2022-09-09T20:06:39.255Z,16.98
2022-09-09T20:09:08.193Z,16.97
2022-09-09T20:11:35.473Z,16.95
2022-09-09T20:14:03.036Z,16.93
2022-09-09T20:16:31.072Z,16.93
2022-09-09T20:19:01.723Z,16.92
2022-09-09T20:21:32.609Z,16.91
2022-09-09T20:24:01.996Z,16.90
2022-09-09T20:26:34.386Z,16.89
2022-09-09T20:29:05.100Z,16.89
2022-09-09T20:31:39.615Z,16.90
2022-09-09T20:34:12.848Z,16.87
2022-09-09T20:36:40.854Z,16.84
2022-09-09T20:39:16.309Z,16.80
2022-09-09T20:41:44.878Z,16.79
2022-09-09T20:44:15.776Z,16.77
2022-09-09T20:46:47.256Z,16.76
2022-09-09T20:49:17.171Z,16.75
2022-09-09T20:51:45.574Z,16.73
2022-09-09T20:54:19.463Z,16.70
2022-09-09T20:56:47.783Z,16.68
2022-09-09T20:59:18.623Z,16.65
2022-09-09T21:01:47.230Z,16.62
2022-09-09T21:04:16.959Z,16.58
2022-09-09T21:06:44.782Z,16.57
2022-09-09T21:09:13.137Z,16.55
2022-09-09T21:11:41.434Z,16.52
2022-09-09T21:14:09.151Z,16.48
2022-09-09T21:16:36.751Z,16.45
2022-09-09T21:19:04.008Z,16.41
2022-09-09T21:21:31.453Z,16.40
2022-09-09T21:24:00.099Z,16.38
2022-09-09T21:26:27.748Z,16.34
2022-09-09T21:28:55.307Z,16.30
2022-09-09T21:31:27.861Z,16.25
2022-09-09T21:33:53.246Z,16.22
2022-09-09T21:36:20.848Z,16.18
2022-09-09T21:38:48.416Z,16.14
2022-09-09T21:41:16.894Z,16.10
2022-09-09T21:43:46.271Z,16.06
2022-09-09T21:46:16.002Z,16.02
2022-09-09T21:48:43.852Z,15.98
2022-09-09T21:51:14.191Z,15.95
2022-09-09T21:53:41.628Z,15.92
2022-09-09T21:56:18.031Z,15.89
2022-09-09T21:58:46.281Z,15.84
2022-09-09T22:01:18.125Z,15.82
2022-09-09T22:03:46.078Z,15.79
2022-09-09T22:06:15.328Z,15.74
2022-09-09T22:08:43.831Z,15.72
2022-09-09T22:11:14.125Z,15.71
2022-09-09T22:13:42.153Z,15.69
2022-09-09T22:16:11.751Z,15.69
2022-09-09T22:18:40.003Z,15.69
2022-09-09T22:21:13.720Z,15.68
2022-09-09T22:23:41.289Z,15.68
2022-09-09T22:26:09.639Z,15.69
2022-09-09T22:28:38.174Z,15.70
2022-09-09T22:31:05.997Z,15.72
2022-09-09T22:33:34.372Z,15.72
2022-09-09T22:36:02.235Z,15.74
2022-09-09T22:38:29.579Z,15.73
2022-09-09T22:40:57.656Z,15.70
2022-09-09T22:43:24.891Z,15.71
2022-09-09T22:45:51.986Z,15.69
2022-09-09T22:48:19.627Z,15.69
2022-09-09T22:50:50.267Z,15.69
2022-09-09T22:53:22.342Z,15.68
2022-09-09T22:56:00.876Z,15.65
2022-09-09T22:58:30.721Z,15.63
2022-09-09T23:00:58.856Z,15.60
2022-09-09T23:03:28.443Z,15.57
2022-09-09T23:05:58.091Z,15.57
2022-09-09T23:08:30.047Z,15.55
2022-09-09T23:10:57.975Z,15.53
2022-09-09T23:13:27.113Z,15.53
2022-09-09T23:15:54.711Z,15.51
2022-09-09T23:18:24.151Z,15.50
2022-09-09T23:21:01.654Z,15.49
2022-09-09T23:23:28.960Z,15.47
2022-09-09T23:25:56.545Z,15.46
2022-09-09T23:28:24.007Z,15.45
2022-09-09T23:30:51.292Z,15.45
2022-09-09T23:33:18.865Z,15.45
2022-09-09T23:35:46.537Z,15.45
2022-09-09T23:38:14.339Z,15.44
2022-09-09T23:40:42.471Z,15.42
2022-09-09T23:43:09.851Z,15.43
2022-09-09T23:45:40.134Z,15.39
2022-09-09T23:48:07.454Z,15.34
2022-09-09T23:50:34.948Z,15.32
2022-09-09T23:53:02.648Z,15.30
2022-09-09T23:55:30.124Z,15.27
2022-09-09T23:57:57.278Z,15.24
